Hauptseite
METAR-TAF:

METAR-TAF

Flughäfen :

Xi’an, China

Flughafen Xi’an-Xianyang

Breite: 34-26N, Länge: 108-45E, Höhe: 479 m

Beobachtung

Neuester Wetterbericht von vor 1 Stunde und 5 Minuten, um 13:00 UTC
Wind 4 kt aus Nordwest, variierte zwischen West und Nord
Temperatur 12°C
Luftfeuchtigkeit 26%
Luftdruck 1025 hPa
Sichtweite 10 km oder mehr
keine Wolken unter 1500 m und keine Kumulonimbus oder Gewitterwolken

METAR: ZLXY 241300Z 32002MPS 280V350 CAVOK 12/M07 Q1025 NOSIG

Zeit: 22:05 (14:05 UTC)

Prognose

Neuester Wetterbericht von vor 4 Stunden und 53 Minuten, um 09:12 UTC
Gültige Prognose vom 24 um 12 UTC bis 25 um 12 UTC
Wind 8 kt aus West/Nordwest, Böen bis zu 19 kt
Sichtweite: 3000 m
trockener Dunst

TAF: ZLXY 240912Z 2412/2512 29004G10MPS 3000 HZ NSC TX15/2508Z TN01/2422Z

Wetterbeobachtungen und Prognosen von mehr als 4000 Flughäfen (METAR und TAF Bericht).

Die verfügbaren Stationen werden durch gelbe und rote Markierungen auf der Karte dargestellt.

Führen Sie die Maus auf sie, um den Namen der Station zu sehen.

Darauf klicken, um die Beobachtung von Wetterbeobachtungen und Prognosen zu sehen.

Um die Karte zu ändern : klicken Sie auf den grünen Tasten mit einem schwarzen Kreuz Zum Vergrößern, auf den grünen Button mit einem Gedankenstrich zu verkleinern, oder auf die grünen Pfeile für benachbarte Karten.


METAR-TAF: